Time;durP1;ratioP1;P1;durP2;ratioP2;P2;SDS_P1;SDS_P2;PMS_P1;PMS_P2;Temp;Humidity;BMP_temperature;BMP_pressure;BME280_temperature;BME280_humidity;BME280_pressure;Samples;Min_cycle;Max_cycle;Signal;HPM_P1;HPM_P2
2022/07/04 00:00:47;;;;;;;;;3.00;3.00;;;;;18.56;100.00;101653.47;5037943;28;45887;-69
2022/07/04 00:03:13;;;;;;;;;6.00;4.67;;;;;18.52;100.00;101653.09;5051602;28;46130;-69
2022/07/04 00:05:38;;;;;;;;;6.67;4.00;;;;;18.50;100.00;101649.69;5055576;28;45372;-70
2022/07/04 00:08:04;;;;;;;;;2.67;2.67;;;;;18.47;100.00;101650.19;5055359;28;45695;-70
2022/07/04 00:10:29;;;;;;;;;2.00;2.00;;;;;18.43;100.00;101648.97;5055091;28;45869;-70
2022/07/04 00:12:56;;;;;;;;;6.67;4.00;;;;;18.39;100.00;101656.94;5055236;28;46268;-71
2022/07/04 00:15:22;;;;;;;;;5.00;3.33;;;;;18.39;100.00;101659.72;5052814;28;45555;-71
2022/07/04 00:17:47;;;;;;;;;4.00;4.00;;;;;18.32;100.00;101647.88;5035785;28;45392;-70
2022/07/04 00:20:12;;;;;;;;;5.00;4.00;;;;;18.35;100.00;101655.72;5049607;28;45708;-70
2022/07/04 00:22:38;;;;;;;;;3.33;3.00;;;;;18.32;100.00;101653.41;5054238;28;45992;-69
2022/07/04 00:25:05;;;;;;;;;2.00;2.00;;;;;18.30;100.00;101656.44;5046334;28;45334;-69
2022/07/04 00:27:30;;;;;;;;;2.00;2.00;;;;;18.28;100.00;101663.34;5044175;28;45357;-71
2022/07/04 00:29:56;;;;;;;;;2.00;2.00;;;;;18.22;100.00;101658.69;5034091;28;45588;-69
2022/07/04 00:32:21;;;;;;;;;2.00;1.00;;;;;18.16;100.00;101652.19;5016659;28;47442;-70
2022/07/04 00:34:47;;;;;;;;;4.00;3.00;;;;;18.16;100.00;101657.75;5034274;28;45734;-70
2022/07/04 00:37:13;;;;;;;;;1.67;1.00;;;;;18.13;100.00;101655.44;5035751;28;45848;-69
2022/07/04 00:39:39;;;;;;;;;1.00;1.00;;;;;18.08;100.00;101658.06;5032831;28;45578;-71
2022/07/04 00:42:05;;;;;;;;;1.00;1.00;;;;;18.05;100.00;101659.38;5026183;28;46931;-69
2022/07/04 00:44:31;;;;;;;;;1.33;1.33;;;;;17.98;100.00;101653.09;5028449;28;45474;-71
2022/07/04 00:46:57;;;;;;;;;3.00;2.00;;;;;18.00;100.00;101671.19;5034179;28;45485;-69
2022/07/04 00:49:22;;;;;;;;;1.33;1.00;;;;;17.96;100.00;101661.66;5016390;28;46902;-70
2022/07/04 00:51:48;;;;;;;;;3.33;2.00;;;;;17.96;100.00;101671.91;5033587;28;45408;-70
2022/07/04 00:54:17;;;;;;;;;3.00;3.00;;;;;17.93;100.00;101662.13;5033810;28;45711;-70
2022/07/04 00:56:44;;;;;;;;;8.67;5.67;;;;;17.95;100.00;101671.06;5033241;28;45460;-70
2022/07/04 00:59:11;;;;;;;;;5.33;5.33;;;;;17.90;100.00;101665.38;5014316;28;45494;-70
2022/07/04 01:01:37;;;;;;;;;14.67;13.00;;;;;17.91;100.00;101674.56;5033258;28;45645;-70
2022/07/04 01:04:04;;;;;;;;;12.67;12.67;;;;;17.90;100.00;101673.69;5034600;28;45685;-69
2022/07/04 01:06:30;;;;;;;;;10.00;7.33;;;;;17.87;100.00;101667.75;4999642;28;45695;-71
2022/07/04 01:08:56;;;;;;;;;15.33;12.33;;;;;17.85;100.00;101669.91;5015558;28;46630;-70
2022/07/04 01:11:22;;;;;;;;;5.33;4.00;;;;;17.87;100.00;101676.91;5033420;28;46093;-70
2022/07/04 01:13:47;;;;;;;;;21.67;17.00;;;;;17.85;100.00;101675.47;5033277;28;45408;-70
2022/07/04 01:16:13;;;;;;;;;12.67;12.00;;;;;17.84;100.00;101680.16;5034449;28;45863;-70
2022/07/04 01:18:39;;;;;;;;;8.33;7.67;;;;;17.81;100.00;101673.16;5034297;28;45389;-70
2022/07/04 01:21:06;;;;;;;;;8.00;6.67;;;;;17.78;100.00;101678.31;5033870;28;46104;-69
2022/07/04 01:23:32;;;;;;;;;5.00;3.00;;;;;17.77;100.00;101677.47;5029589;28;45819;-69
2022/07/04 01:25:59;;;;;;;;;10.00;10.00;;;;;17.74;100.00;101668.75;5016220;28;45335;-70
2022/07/04 01:28:25;;;;;;;;;4.00;4.00;;;;;17.75;100.00;101679.63;5033881;28;45690;-70
2022/07/04 01:30:51;;;;;;;;;3.00;2.33;;;;;17.76;100.00;101667.44;5033914;28;46099;-69
2022/07/04 01:33:17;;;;;;;;;0.00;0.00;;;;;17.73;100.00;101670.69;5033632;28;45664;-69
2022/07/04 01:35:44;;;;;;;;;2.00;2.00;;;;;17.69;100.00;101672.25;5033283;28;45473;-70
2022/07/04 01:38:09;;;;;;;;;3.33;2.00;;;;;17.70;100.00;101665.63;5038989;28;45379;-70
2022/07/04 01:40:35;;;;;;;;;11.33;9.00;;;;;17.69;100.00;101675.03;5031482;28;47038;-70
2022/07/04 01:43:00;;;;;;;;;5.00;5.00;;;;;17.67;100.00;101674.41;5032881;28;45405;-69
2022/07/04 01:45:26;;;;;;;;;3.33;3.33;;;;;17.65;100.00;101668.25;5032875;28;45353;-69
2022/07/04 01:47:51;;;;;;;;;4.00;2.00;;;;;17.62;100.00;101663.19;5033198;28;45352;-70
2022/07/04 01:50:18;;;;;;;;;4.33;4.00;;;;;17.62;100.00;101665.97;5033117;28;46390;-70
2022/07/04 01:52:43;;;;;;;;;6.67;2.67;;;;;17.59;100.00;101663.63;5018837;28;45730;-69
2022/07/04 01:55:11;;;;;;;;;4.00;3.00;;;;;17.58;100.00;101665.56;5032516;28;45663;-71
2022/07/04 01:57:37;;;;;;;;;2.00;1.33;;;;;17.55;100.00;101668.81;5032337;28;45408;-70
2022/07/04 02:02:51;;;;;;;;;1.00;1.00;;;;;17.47;100.00;101661.66;5031157;28;45516;-70
2022/07/04 02:05:17;;;;;;;;;5.67;4.67;;;;;17.45;100.00;101671.28;5033087;28;45530;-70
2022/07/04 02:07:43;;;;;;;;;2.00;1.00;;;;;17.29;100.00;101645.03;5033095;28;45460;-70
2022/07/04 02:10:09;;;;;;;;;2.00;2.00;;;;;17.40;100.00;101660.88;5032149;28;45860;-70
2022/07/04 02:15:19;;;;;;;;;2.00;2.00;;;;;17.47;100.00;101660.81;5033171;28;45797;-69
2022/07/04 02:17:44;;;;;;;;;2.67;2.00;;;;;17.48;100.00;101659.72;5032558;28;45801;-70
2022/07/04 02:20:10;;;;;;;;;2.00;1.33;;;;;17.46;100.00;101659.13;5032667;28;45352;-68
2022/07/04 02:22:35;;;;;;;;;6.00;6.00;;;;;17.46;100.00;101659.13;5015075;28;45413;-71
2022/07/04 02:25:01;;;;;;;;;1.33;1.00;;;;;17.42;100.00;101658.72;5032912;28;45259;-70
2022/07/04 02:27:26;;;;;;;;;0.00;0.00;;;;;17.40;100.00;101660.88;5032740;28;45432;-69
2022/07/04 02:29:51;;;;;;;;;4.00;2.67;;;;;17.36;100.00;101654.09;5032641;28;45785;-69
2022/07/04 02:32:17;;;;;;;;;1.00;1.00;;;;;17.32;100.00;101665.88;5032608;28;45867;-69
2022/07/04 02:34:42;;;;;;;;;1.00;1.00;;;;;17.29;100.00;101661.69;5032897;28;45442;-70
2022/07/04 02:37:08;;;;;;;;;1.00;1.00;;;;;17.26;100.00;101659.34;5035211;28;45690;-70
2022/07/04 02:39:33;;;;;;;;;1.33;1.00;;;;;17.15;100.00;101643.50;5032364;28;46012;-71
2022/07/04 02:41:58;;;;;;;;;1.00;1.00;;;;;17.20;100.00;101660.25;5032650;28;45699;-70
2022/07/04 02:44:24;;;;;;;;;3.67;2.33;;;;;17.20;100.00;101671.34;5033159;28;45472;-70
2022/07/04 02:46:49;;;;;;;;;2.00;1.00;;;;;17.15;100.00;101662.91;5032884;28;45462;-69
2022/07/04 02:49:15;;;;;;;;;0.33;0.33;;;;;17.11;100.00;101666.13;5038216;28;46218;-68
2022/07/04 02:51:41;;;;;;;;;1.00;1.00;;;;;17.10;100.00;101672.75;5035403;28;45358;-68
2022/07/04 02:54:07;;;;;;;;;1.00;0.00;;;;;17.08;100.00;101661.06;5032977;28;45685;-69
2022/07/04 02:56:33;;;;;;;;;1.00;1.00;;;;;17.07;100.00;101672.38;5015236;28;47473;-69
2022/07/04 02:58:58;;;;;;;;;2.00;0.00;;;;;17.01;100.00;101660.25;5027105;28;46259;-69
2022/07/04 03:01:24;;;;;;;;;1.67;1.00;;;;;17.00;100.00;101658.56;5032367;28;45377;-70
2022/07/04 03:03:49;;;;;;;;;1.33;1.00;;;;;16.97;100.00;101664.56;5032113;28;45337;-69
2022/07/04 03:06:15;;;;;;;;;1.00;1.00;;;;;16.96;100.00;101681.41;5031836;28;45879;-70
2022/07/04 03:08:41;;;;;;;;;3.00;2.00;;;;;16.93;100.00;101675.28;5032385;28;46229;-68
2022/07/04 03:11:06;;;;;;;;;1.00;1.00;;;;;16.90;100.00;101680.41;5031887;28;45337;-70
2022/07/04 03:13:32;;;;;;;;;1.00;1.00;;;;;16.89;100.00;101681.50;5032182;28;45443;-71
2022/07/04 03:15:58;;;;;;;;;1.00;1.00;;;;;16.84;100.00;101682.16;5013928;28;45839;-71
2022/07/04 03:18:23;;;;;;;;;3.33;2.33;;;;;16.87;100.00;101683.63;5031889;28;45678;-69
2022/07/04 03:20:49;;;;;;;;;2.00;2.00;;;;;16.85;100.00;101689.38;5031745;28;45725;-70
2022/07/04 03:23:14;;;;;;;;;2.67;1.33;;;;;16.85;100.00;101696.84;5034847;28;45682;-69
2022/07/04 03:25:40;;;;;;;;;3.00;0.67;;;;;16.83;100.00;101699.00;5017608;28;45979;-70
2022/07/04 03:28:06;;;;;;;;;3.00;3.00;;;;;16.79;100.00;101701.38;5034751;28;45845;-69
2022/07/04 03:30:33;;;;;;;;;2.00;2.00;;;;;16.79;100.00;101695.00;5034681;28;45434;-69
2022/07/04 03:32:59;;;;;;;;;1.33;1.33;;;;;16.77;100.00;101704.38;5014818;28;45356;-69
2022/07/04 03:35:25;;;;;;;;;1.00;1.00;;;;;16.77;100.00;101704.38;5034876;28;45780;-70
2022/07/04 03:37:52;;;;;;;;;1.67;1.67;;;;;16.76;100.00;101699.06;5037498;28;46872;-70
2022/07/04 03:40:19;;;;;;;;;2.00;2.00;;;;;16.74;100.00;101701.22;5013910;28;45749;-69
2022/07/04 03:42:45;;;;;;;;;2.67;2.33;;;;;16.74;100.00;101698.44;5027024;28;45499;-72
2022/07/04 03:45:10;;;;;;;;;1.33;1.33;;;;;16.75;100.00;101712.06;5034443;28;45522;-70
2022/07/04 03:47:36;;;;;;;;;1.33;1.00;;;;;16.64;100.00;101692.56;5034650;28;45686;-71
2022/07/04 03:50:01;;;;;;;;;3.00;2.00;;;;;16.75;100.00;101703.75;5016879;28;45395;-69
2022/07/04 03:52:27;;;;;;;;;1.00;1.00;;;;;16.76;100.00;101697.13;5034959;28;45592;-70
2022/07/04 03:54:53;;;;;;;;;2.00;2.00;;;;;16.77;100.00;101698.81;5034908;28;45805;-72
2022/07/04 03:57:18;;;;;;;;;1.67;0.00;;;;;16.80;100.00;101699.47;5034678;28;45779;-70
2022/07/04 03:59:44;;;;;;;;;3.00;2.00;;;;;16.85;100.00;101689.38;5034901;28;45742;-70
2022/07/04 04:02:09;;;;;;;;;2.00;2.00;;;;;17.05;100.00;101693.91;5035140;28;45222;-71
2022/07/04 04:07:19;;;;;;;;;4.33;2.00;;;;;17.58;100.00;101684.97;5058992;28;45956;-74
2022/07/04 04:09:44;;;;;;;;;2.67;2.00;;;;;17.90;100.00;101689.50;5062824;28;45454;-71
2022/07/04 04:12:09;;;;;;;;;3.00;1.00;;;;;18.30;100.00;101683.38;5063334;28;45611;-72
2022/07/04 04:14:35;;;;;;;;;2.00;2.00;;;;;18.74;100.00;101686.69;5063893;28;44772;-71
2022/07/04 04:17:01;;;;;;;;;1.67;1.67;;;;;19.17;100.00;101679.09;5062143;28;46172;-78
2022/07/04 04:19:26;;;;;;;;;0.67;0.67;;;;;19.60;100.00;101675.03;5060788;28;45423;-79
2022/07/04 04:21:52;;;;;;;;;1.33;1.33;;;;;20.08;100.00;101672.91;5064255;28;45487;-74
2022/07/04 04:24:17;;;;;;;;;2.00;1.00;;;;;20.60;100.00;101681.06;5065622;28;45451;-73
2022/07/04 04:26:43;;;;;;;;;2.33;1.00;;;;;21.04;100.00;101654.44;5060951;28;45393;-74
2022/07/04 04:29:08;;;;;;;;;2.00;1.67;;;;;21.65;100.00;101683.16;5047303;28;45423;-75
2022/07/04 04:31:33;;;;;;;;;1.00;1.00;;;;;22.17;100.00;101675.34;5052494;28;45328;-74
2022/07/04 04:33:59;;;;;;;;;2.00;2.00;;;;;22.73;100.00;101675.03;5061301;28;45446;-74
2022/07/04 04:36:24;;;;;;;;;6.33;4.67;;;;;23.24;100.00;101664.19;5066954;28;45501;-75
2022/07/04 04:38:50;;;;;;;;;19.67;17.67;;;;;23.91;100.00;101695.28;5073835;28;46505;-73
2022/07/04 04:41:16;;;;;;;;;15.67;13.00;;;;;24.41;100.00;101694.81;5063122;28;45378;-74
2022/07/04 04:43:42;;;;;;;;;20.67;15.67;;;;;24.80;100.00;101650.22;5062897;28;46183;-73
2022/07/04 04:46:07;;;;;;;;;8.67;6.33;;;;;25.40;100.00;101660.75;5047100;28;48087;-74
2022/07/04 04:48:33;;;;;;;;;16.33;14.00;;;;;26.10;100.00;101687.94;5052082;28;45354;-74
2022/07/04 04:50:58;;;;;;;;;5.67;4.67;;;;;26.68;97.77;101686.44;5035901;28;45866;-79
2022/07/04 04:53:25;;;;;;;;;4.00;4.00;;;;;27.24;94.00;101685.81;5057696;28;45391;-79
2022/07/04 04:55:52;;;;;;;;;5.33;4.00;;;;;27.84;88.51;101690.16;5063659;28;45460;-78
2022/07/04 04:58:17;;;;;;;;;2.67;2.67;;;;;28.43;83.40;101685.09;5058947;28;45835;-78
2022/07/04 05:00:43;;;;;;;;;2.00;2.00;;;;;28.98;79.25;101695.72;5062963;28;45545;-79
2022/07/04 05:03:08;;;;;;;;;2.00;2.00;;;;;29.55;75.31;101692.66;5062412;28;45852;-79
2022/07/04 05:05:34;;;;;;;;;2.00;2.00;;;;;30.23;71.31;101692.00;5050983;28;45427;-78
2022/07/04 05:07:59;;;;;;;;;0.67;0.67;;;;;30.85;67.22;101690.47;5059457;28;45366;-81
2022/07/04 05:10:25;;;;;;;;;1.33;1.33;;;;;31.50;63.38;101684.09;5063423;28;45327;-79
2022/07/04 05:12:50;;;;;;;;;1.00;1.00;;;;;32.16;56.66;101690.94;5059154;28;45472;-80
2022/07/04 05:15:16;;;;;;;;;3.00;2.00;;;;;32.66;52.04;101681.06;5066936;28;45057;-77
2022/07/04 05:17:41;;;;;;;;;3.00;1.00;;;;;33.35;53.71;101693.38;5053193;28;45339;-79
2022/07/04 05:20:07;;;;;;;;;1.75;1.25;;;;;34.00;48.73;101696.88;5050399;28;45285;-79
2022/07/04 05:22:33;;;;;;;;;1.75;1.75;;;;;34.66;46.68;101698.16;5061952;28;45423;-79
2022/07/04 05:24:59;;;;;;;;;3.00;2.00;;;;;35.19;42.91;101692.69;5042068;28;46218;-78
2022/07/04 05:27:25;;;;;;;;;1.00;1.00;;;;;35.79;41.13;101695.09;5061405;28;45320;-78
2022/07/04 05:29:51;;;;;;;;;3.00;1.50;;;;;36.39;38.43;101693.28;5044803;28;45582;-77
2022/07/04 05:32:17;;;;;;;;;3.25;2.75;;;;;36.77;35.63;101693.13;5069477;28;45402;-78
2022/07/04 05:34:42;;;;;;;;;2.50;2.50;;;;;37.15;35.31;101683.09;5043759;28;47045;-75
2022/07/04 05:37:07;;;;;;;;;1.00;1.00;;;;;37.49;33.97;101680.66;5049859;27;47214;-77
2022/07/04 05:39:33;;;;;;;;;3.50;0.75;;;;;38.02;32.84;101681.09;5053380;28;45584;-77
2022/07/04 05:41:59;;;;;;;;;2.50;2.50;;;;;38.43;32.05;101661.53;5053676;28;45360;-80
2022/07/04 05:44:25;;;;;;;;;3.25;2.75;;;;;38.90;30.49;101662.44;5039791;28;47384;-80
2022/07/04 05:46:50;;;;;;;;;5.75;2.00;;;;;39.45;29.13;101672.78;5049136;28;45477;-80
2022/07/04 05:49:16;;;;;;;;;1.50;1.50;;;;;39.97;28.12;101678.88;5040382;28;45518;-79
2022/07/04 05:51:42;;;;;;;;;1.25;1.25;;;;;40.42;27.65;101672.09;5058177;28;45528;-78
2022/07/04 05:54:07;;;;;;;;;2.00;0.75;;;;;40.85;27.40;101671.72;5051751;28;46311;-79
2022/07/04 05:56:33;;;;;;;;;0.75;0.75;;;;;41.22;25.98;101664.28;5028683;28;45507;-78
2022/07/04 05:58:58;;;;;;;;;1.75;1.00;;;;;41.45;25.45;101669.81;5050823;28;45900;-78
2022/07/04 06:01:24;;;;;;;;;1.00;1.00;;;;;41.70;25.35;101677.78;5056235;28;45513;-79
2022/07/04 06:03:49;;;;;;;;;1.00;1.00;;;;;41.80;24.97;101662.63;5039244;28;46937;-79
2022/07/04 06:06:16;;;;;;;;;2.25;1.00;;;;;42.25;24.50;101669.06;5055024;28;45483;-79
2022/07/04 06:08:41;;;;;;;;;1.00;1.00;;;;;42.71;23.79;101675.34;5042998;28;45552;-79
2022/07/04 06:11:07;;;;;;;;;2.00;0.00;;;;;43.02;23.62;101674.56;5039046;28;45448;-80
2022/07/04 06:13:32;;;;;;;;;1.00;1.00;;;;;43.37;22.95;101684.47;5044176;28;46927;-79
2022/07/04 06:15:58;;;;;;;;;1.00;1.00;;;;;43.67;22.59;101686.09;5066852;27;45436;-79
2022/07/04 06:18:24;;;;;;;;;0.50;0.50;;;;;44.02;22.49;101669.91;5041406;28;45835;-79
2022/07/04 06:20:49;;;;;;;;;2.00;2.00;;;;;44.45;22.25;101691.19;5048623;28;46933;-80
2022/07/04 06:23:15;;;;;;;;;1.00;1.00;;;;;44.73;22.07;101685.22;5040691;28;45376;-80
2022/07/04 06:25:41;;;;;;;;;1.00;1.00;;;;;44.89;21.51;101658.66;5063430;28;44872;-79
2022/07/04 06:28:07;;;;;;;;;3.75;2.00;;;;;45.16;20.49;101683.28;5055619;27;45471;-78
2022/07/04 06:30:32;;;;;;;;;1.00;1.00;;;;;45.15;20.68;101661.38;5056703;27;45693;-79
2022/07/04 06:32:59;;;;;;;;;1.00;1.00;;;;;45.54;20.91;101677.56;5048471;28;45539;-79
2022/07/04 06:35:46;;;;;;;;;1.00;1.00;;;;;45.75;20.07;101671.50;5045272;28;45389;-78
2022/07/04 06:38:19;;;;;;;;;3.00;2.00;;;;;45.90;19.90;101680.88;5041185;28;45459;-78
2022/07/04 06:40:45;;;;;;;;;1.00;1.00;;;;;46.08;19.85;101677.75;5028099;28;46088;-80
2022/07/04 06:43:11;;;;;;;;;2.00;1.00;;;;;46.49;19.81;101693.38;5061572;28;45468;-79
2022/07/04 06:45:40;;;;;;;;;0.50;0.50;;;;;46.76;18.61;101681.78;5040075;28;45408;-79
2022/07/04 06:48:06;;;;;;;;;1.67;1.67;;;;;46.97;18.74;101674.84;5038105;28;45740;-79
2022/07/04 06:50:33;;;;;;;;;1.00;1.00;;;;;47.32;18.52;101683.34;5047423;28;45299;-78
2022/07/04 06:53:04;;;;;;;;;3.00;1.33;;;;;47.47;17.75;101663.59;5043677;28;47714;-80
2022/07/04 06:55:30;;;;;;;;;3.00;2.00;;;;;47.68;17.56;101668.16;5042902;28;45347;-80
2022/07/04 06:57:56;;;;;;;;;1.00;1.00;;;;;47.70;17.38;101683.03;5051865;28;45410;-80
2022/07/04 07:00:22;;;;;;;;;1.67;1.67;;;;;47.63;17.77;101668.69;5034567;28;45717;-80
2022/07/04 07:02:48;;;;;;;;;2.67;1.67;;;;;47.88;17.63;101682.72;5057363;28;45430;-81
2022/07/04 07:05:16;;;;;;;;;2.00;2.00;;;;;48.02;17.35;101690.31;5049243;28;45410;-79
2022/07/04 07:07:41;;;;;;;;;3.67;1.00;;;;;48.48;17.16;101685.59;5045729;28;45308;-79
2022/07/04 07:10:07;;;;;;;;;1.00;1.00;;;;;48.71;16.56;101680.91;5056166;28;45205;-80
2022/07/04 07:12:34;;;;;;;;;1.00;1.00;;;;;48.92;16.60;101683.28;5068494;28;48479;-80
2022/07/04 07:15:00;;;;;;;;;3.00;1.67;;;;;49.13;15.99;101690.63;5056286;28;45461;-78
2022/07/04 07:17:26;;;;;;;;;1.00;1.00;;;;;49.44;16.07;101689.44;5048659;28;45336;-79
2022/07/04 07:19:52;;;;;;;;;1.00;1.00;;;;;49.58;15.79;101683.22;5031847;28;45414;-79
2022/07/04 07:22:17;;;;;;;;;1.33;1.33;;;;;49.95;15.78;101689.69;5048680;28;46941;-82
2022/07/04 07:24:43;;;;;;;;;1.00;1.00;;;;;50.14;15.63;101692.84;5043698;28;45347;-80
2022/07/04 07:27:09;;;;;;;;;1.67;0.67;;;;;50.34;15.66;101692.69;5052767;28;44780;-79
2022/07/04 07:29:35;;;;;;;;;1.00;1.00;;;;;50.63;14.94;101697.63;5050922;28;45479;-79
2022/07/04 07:32:01;;;;;;;;;0.33;0.33;;;;;50.79;14.99;101690.84;5041683;28;47067;-78
2022/07/04 07:34:27;;;;;;;;;1.00;1.00;;;;;50.92;14.58;101703.34;5056472;28;45352;-79
2022/07/04 07:36:53;;;;;;;;;1.00;0.00;;;;;50.87;14.80;101698.06;5066919;28;45435;-81
2022/07/04 07:39:19;;;;;;;;;1.00;1.00;;;;;50.97;14.27;101681.50;5047779;28;45430;-81
2022/07/04 07:41:45;;;;;;;;;2.00;2.00;;;;;51.09;14.19;101671.88;5031583;28;45536;-80
2022/07/04 07:44:11;;;;;;;;;3.00;2.00;;;;;51.27;14.35;101693.81;5064956;28;45240;-79
2022/07/04 07:46:36;;;;;;;;;0.00;0.00;;;;;51.50;14.11;101684.59;5043271;28;45421;-79
2022/07/04 07:49:03;;;;;;;;;2.33;2.00;;;;;51.63;13.92;101686.66;5032012;28;45629;-79
2022/07/04 07:51:29;;;;;;;;;1.00;1.00;;;;;51.50;13.95;101683.78;5050316;28;46189;-81
2022/07/04 07:53:54;;;;;;;;;0.33;0.33;;;;;51.37;13.62;101669.22;5044935;28;45528;-78
2022/07/04 07:56:20;;;;;;;;;2.00;1.00;;;;;51.55;13.95;101675.25;5044524;28;45295;-79
2022/07/04 07:58:46;;;;;;;;;0.00;0.00;;;;;51.82;13.42;101690.56;5049258;28;45663;-79
2022/07/04 08:01:11;;;;;;;;;2.00;1.00;;;;;52.01;13.67;101673.97;5059073;28;46278;-79
2022/07/04 08:06:21;;;;;;;;;3.00;0.00;;;;;52.64;13.41;101677.69;5050432;28;45533;-80
2022/07/04 08:08:47;;;;;;;;;1.00;1.00;;;;;52.82;12.91;101664.44;5042407;28;46238;-80
2022/07/04 08:11:12;;;;;;;;;2.00;1.00;;;;;53.25;12.92;101674.28;5034383;28;45657;-80
2022/07/04 08:13:39;;;;;;;;;2.00;1.00;;;;;53.22;12.37;101645.94;5054637;28;45418;-80
2022/07/04 08:16:05;;;;;;;;;2.00;0.00;;;;;53.33;12.00;101660.91;5046841;28;45616;-80
2022/07/04 08:18:32;;;;;;;;;0.33;0.33;;;;;53.41;11.69;101668.13;5053474;28;45354;-80
2022/07/04 08:20:57;;;;;;;;;0.00;0.00;;;;;53.65;11.25;101650.66;5056910;28;47228;-80
2022/07/04 08:23:23;;;;;;;;;1.00;1.00;;;;;53.91;11.29;101664.97;5050182;28;45343;-81
2022/07/04 08:25:48;;;;;;;;;1.00;1.00;;;;;54.37;12.09;101661.13;5052478;28;44910;-81
2022/07/04 08:28:14;;;;;;;;;1.00;0.67;;;;;54.29;11.72;101671.56;5049939;28;45343;-80
2022/07/04 08:30:39;;;;;;;;;1.67;0.00;;;;;54.38;10.88;101665.69;5037662;28;47445;-79
2022/07/04 08:33:08;;;;;;;;;1.00;0.00;;;;;54.57;10.70;101665.59;5048126;28;45376;-79
2022/07/04 08:35:33;;;;;;;;;0.33;0.33;;;;;54.31;11.08;101669.75;5064950;27;45418;-79
2022/07/04 08:37:59;;;;;;;;;0.00;0.00;;;;;54.06;10.67;101655.50;5026347;28;46362;-80
2022/07/04 08:40:30;;;;;;;;;0.00;0.00;;;;;54.09;10.75;101649.44;5043340;28;45530;-79
2022/07/04 08:42:56;;;;;;;;;1.00;1.00;;;;;54.45;10.48;101649.81;5046529;28;45394;-80
2022/07/04 08:45:33;;;;;;;;;0.33;0.33;;;;;54.54;10.90;101651.91;5036384;28;45454;-79
2022/07/04 08:48:07;;;;;;;;;0.00;0.00;;;;;54.78;10.54;101652.72;5043499;28;45271;-80
2022/07/04 08:50:37;;;;;;;;;0.00;0.00;;;;;55.00;10.72;101655.41;5042874;28;48437;-79
2022/07/04 08:53:09;;;;;;;;;0.00;0.00;;;;;55.06;10.92;101646.69;5039590;28;45486;-80
2022/07/04 08:58:31;;;;;;;;;2.00;0.00;;;;;55.21;10.44;101638.72;5063704;28;45382;-80
2022/07/04 09:01:03;;;;;;;;;0.00;0.00;;;;;55.40;10.68;101644.47;5062653;28;46450;-81
2022/07/04 09:03:29;;;;;;;;;0.00;0.00;;;;;55.52;9.62;101631.59;5040233;28;45882;-80
2022/07/04 09:05:56;;;;;;;;;0.67;0.67;;;;;55.44;10.04;101636.25;5048373;28;45426;-80
2022/07/04 09:08:22;;;;;;;;;0.00;0.00;;;;;55.66;10.26;101647.66;5027141;28;45791;-78
2022/07/04 09:10:49;;;;;;;;;0.33;0.33;;;;;55.51;10.32;101638.00;5057126;28;46594;-80
2022/07/04 09:13:17;;;;;;;;;2.67;0.00;;;;;55.36;10.24;101638.78;5024019;28;45424;-82
2022/07/04 09:15:47;;;;;;;;;2.00;0.00;;;;;55.45;9.89;101634.94;5051100;28;45429;-79
2022/07/04 09:18:23;;;;;;;;;0.00;0.00;;;;;55.53;10.48;101638.28;5053780;28;45402;-80
2022/07/04 09:20:49;;;;;;;;;2.00;1.00;;;;;55.52;9.98;101633.75;5053453;28;46344;-79
2022/07/04 09:23:21;;;;;;;;;0.00;0.00;;;;;55.59;10.05;101636.25;5075198;28;45215;-80
2022/07/04 09:25:47;;;;;;;;;2.00;0.00;;;;;55.73;10.43;101628.81;5079879;28;45365;-79
2022/07/04 09:28:26;;;;;;;;;0.00;0.00;;;;;55.90;9.99;101624.00;5062233;28;45474;-79
2022/07/04 09:30:51;;;;;;;;;2.00;0.33;;;;;56.12;9.20;101628.69;5069587;28;45383;-80
2022/07/04 09:33:18;;;;;;;;;2.00;0.00;;;;;56.06;9.51;101630.72;5043882;28;45467;-81
2022/07/04 09:35:44;;;;;;;;;0.00;0.00;;;;;56.25;9.63;101622.44;5051994;28;45502;-81
2022/07/04 09:38:12;;;;;;;;;1.00;1.00;;;;;56.37;9.94;101614.63;5045050;28;45491;-79
2022/07/04 09:43:25;;;;;;;;;0.00;0.00;;;;;56.20;9.51;101618.09;5049255;28;45391;-80
2022/07/04 09:45:55;;;;;;;;;0.00;0.00;;;;;56.34;9.53;101618.59;5058853;28;45334;-80
2022/07/04 09:48:21;;;;;;;;;0.67;0.00;;;;;56.53;9.70;101602.25;5051737;28;45335;-80
2022/07/04 09:50:47;;;;;;;;;0.00;0.00;;;;;56.56;9.61;101621.84;5047310;28;47097;-82
2022/07/04 09:53:12;;;;;;;;;0.00;0.00;;;;;56.80;9.59;101620.88;5044746;28;45319;-82
2022/07/04 09:55:38;;;;;;;;;0.33;0.00;;;;;56.92;9.68;101622.66;5052690;28;45568;-82
2022/07/04 09:58:09;;;;;;;;;0.00;0.00;;;;;56.34;9.45;101603.84;5046434;28;46797;-82
2022/07/04 10:00:37;;;;;;;;;0.00;0.00;;;;;55.70;9.57;101615.09;5038131;28;45327;-82
2022/07/04 10:03:30;;;;;;;;;0.67;0.67;;;;;55.70;10.14;101618.03;5050994;28;45283;-81
2022/07/04 10:06:06;;;;;;;;;1.00;0.00;;;;;55.82;10.11;101622.81;5034681;28;45455;-81
2022/07/04 10:08:32;;;;;;;;;1.33;0.00;;;;;55.60;10.20;101610.59;5033722;28;45316;-81
2022/07/04 10:11:00;;;;;;;;;1.00;1.00;;;;;55.44;9.76;101609.78;5048546;28;45751;-81
2022/07/04 10:13:26;;;;;;;;;0.00;0.00;;;;;55.34;10.15;101625.91;5037915;28;45479;-80
2022/07/04 10:15:52;;;;;;;;;0.00;0.00;;;;;55.40;10.03;101615.06;5048591;28;45480;-83
2022/07/04 10:18:20;;;;;;;;;2.00;0.33;;;;;55.25;9.91;101611.25;5049829;28;45356;-82
2022/07/04 10:20:49;;;;;;;;;0.00;0.00;;;;;54.97;10.05;101606.41;5021047;28;45996;-82
2022/07/04 10:23:15;;;;;;;;;0.00;0.00;;;;;54.90;10.43;101594.22;5040363;28;45478;-79
2022/07/04 10:25:41;;;;;;;;;0.00;0.00;;;;;55.00;9.68;101595.78;5037906;28;45470;-79
2022/07/04 10:28:08;;;;;;;;;0.00;0.00;;;;;54.75;10.26;101586.16;5039125;28;45582;-82
2022/07/04 10:30:37;;;;;;;;;0.67;0.67;;;;;54.83;9.83;101607.97;5040703;28;45538;-83
2022/07/04 10:33:05;;;;;;;;;0.00;0.00;;;;;54.90;10.14;101591.28;5043857;28;45444;-82
2022/07/04 10:35:56;;;;;;;;;1.00;1.00;;;;;54.33;9.59;101599.63;5048031;28;44890;-79
2022/07/04 10:38:30;;;;;;;;;0.00;0.00;;;;;54.15;10.05;101593.81;5045175;28;45911;-81
2022/07/04 10:41:04;;;;;;;;;1.00;1.00;;;;;53.75;9.69;101591.97;5040751;28;46621;-79
2022/07/04 10:43:42;;;;;;;;;2.00;1.00;;;;;53.58;10.01;101591.53;5036121;28;45458;-80
2022/07/04 10:46:19;;;;;;;;;1.00;0.00;;;;;53.36;10.45;101589.63;5028987;28;45687;-81
2022/07/04 10:48:53;;;;;;;;;0.33;0.33;;;;;53.28;10.63;101586.16;5031094;28;45539;-80
2022/07/04 10:51:46;;;;;;;;;1.00;1.00;;;;;53.10;10.29;101592.03;5033118;28;45530;-82
2022/07/04 10:54:21;;;;;;;;;1.00;0.00;;;;;52.95;10.69;101594.78;5034668;28;45338;-80
2022/07/04 10:56:55;;;;;;;;;4.00;3.00;;;;;52.65;11.16;101581.88;5023176;28;44885;-80
2022/07/04 10:59:29;;;;;;;;;1.00;1.00;;;;;52.21;11.36;101597.50;5021343;28;46172;-80
2022/07/04 11:02:06;;;;;;;;;0.00;0.00;;;;;52.11;11.53;101592.91;5020830;28;47283;-82
2022/07/04 11:05:05;;;;;;;;;0.33;0.33;;;;;51.95;11.42;101585.97;5025636;28;45286;-80
2022/07/04 11:07:30;;;;;;;;;2.33;1.67;;;;;51.49;11.45;101592.34;5028448;28;45694;-79
2022/07/04 11:12:55;;;;;;;;;0.00;0.00;;;;;50.51;11.75;101574.50;5047793;28;45520;-80
2022/07/04 11:15:29;;;;;;;;;1.00;1.00;;;;;50.05;11.71;101588.50;5048524;28;45360;-81
2022/07/04 11:17:55;;;;;;;;;0.67;0.00;;;;;49.63;12.02;101583.53;5044769;28;45498;-79
2022/07/04 11:20:22;;;;;;;;;2.00;0.00;;;;;49.22;12.59;101585.13;5051625;28;45380;-81
2022/07/04 11:26:13;;;;;;;;;1.00;1.00;;;;;47.09;13.73;101574.63;5044960;28;45383;-82
2022/07/04 11:28:40;;;;;;;;;2.00;0.33;;;;;46.01;14.58;101567.66;5041259;28;44765;-80
2022/07/04 11:31:06;;;;;;;;;1.00;1.00;;;;;44.90;14.81;101570.56;5054344;28;45861;-80
2022/07/04 11:33:35;;;;;;;;;0.00;0.00;;;;;43.81;14.86;101578.28;5041033;28;45960;-80
2022/07/04 11:36:11;;;;;;;;;1.00;1.00;;;;;42.63;16.38;101583.03;5044946;28;45321;-82
2022/07/04 11:38:56;;;;;;;;;2.00;0.00;;;;;41.46;17.54;101574.38;5060555;28;45430;-79
2022/07/04 11:47:14;;;;;;;;;1.00;1.00;;;;;38.03;20.19;101576.81;5055628;28;45428;-78
2022/07/04 11:49:43;;;;;;;;;1.00;1.00;;;;;37.11;21.26;101565.72;5043662;28;45550;-79